sensor_id;sensor_type;location;lat;lon;timestamp;pressure;altitude;pressure_sealevel;temperature;humidity
43364;BME280;40636;52.424;-1.948;2023-02-04T00:00:10;101841.34;;;8.38;100.00
43364;BME280;40636;52.424;-1.948;2023-02-04T00:02:39;101851.06;;;8.41;100.00
43364;BME280;40636;52.424;-1.948;2023-02-04T00:05:07;101850.88;;;8.43;100.00
43364;BME280;40636;52.424;-1.948;2023-02-04T00:07:36;101844.41;;;8.35;100.00
43364;BME280;40636;52.424;-1.948;2023-02-04T00:10:04;101848.03;;;8.36;100.00
43364;BME280;40636;52.424;-1.948;2023-02-04T00:12:31;101836.59;;;8.32;100.00
43364;BME280;40636;52.424;-1.948;2023-02-04T00:14:59;101844.28;;;8.37;100.00
43364;BME280;40636;52.424;-1.948;2023-02-04T00:17:26;101844.28;;;8.37;100.00
43364;BME280;40636;52.424;-1.948;2023-02-04T00:19:53;101834.34;;;8.36;100.00
43364;BME280;40636;52.424;-1.948;2023-02-04T00:22:19;101841.53;;;8.37;100.00
43364;BME280;40636;52.424;-1.948;2023-02-04T00:24:46;101834.34;;;8.36;100.00
43364;BME280;40636;52.424;-1.948;2023-02-04T00:27:14;101835.34;;;8.35;100.00
43364;BME280;40636;52.424;-1.948;2023-02-04T00:29:41;101841.66;;;8.35;100.00
43364;BME280;40636;52.424;-1.948;2023-02-04T00:32:07;101839.66;;;8.37;100.00
43364;BME280;40636;52.424;-1.948;2023-02-04T00:34:34;101837.75;;;8.38;100.00
43364;BME280;40636;52.424;-1.948;2023-02-04T00:37:01;101843.44;;;8.36;100.00
43364;BME280;40636;52.424;-1.948;2023-02-04T00:39:28;101844.59;;;8.34;100.00
43364;BME280;40636;52.424;-1.948;2023-02-04T00:41:55;101842.72;;;8.34;100.00
43364;BME280;40636;52.424;-1.948;2023-02-04T00:44:22;101846.28;;;8.35;100.00
43364;BME280;40636;52.424;-1.948;2023-02-04T00:46:48;101847.34;;;8.34;100.00
43364;BME280;40636;52.424;-1.948;2023-02-04T00:49:15;101850.06;;;8.34;100.00
43364;BME280;40636;52.424;-1.948;2023-02-04T00:51:42;101850.59;;;8.37;100.00
43364;BME280;40636;52.424;-1.948;2023-02-04T00:54:12;101847.66;;;8.39;100.00
43364;BME280;40636;52.424;-1.948;2023-02-04T00:56:42;101845.13;;;8.37;100.00
43364;BME280;40636;52.424;-1.948;2023-02-04T00:59:09;101851.75;;;8.35;100.00
43364;BME280;40636;52.424;-1.948;2023-02-04T01:01:36;101847.16;;;8.35;100.00
43364;BME280;40636;52.424;-1.948;2023-02-04T01:04:03;101854.38;;;8.36;100.00
43364;BME280;40636;52.424;-1.948;2023-02-04T01:06:30;101851.69;;;8.28;100.00
43364;BME280;40636;52.424;-1.948;2023-02-04T01:08:56;101854.41;;;8.28;100.00
43364;BME280;40636;52.424;-1.948;2023-02-04T01:11:23;101861.38;;;8.31;100.00
43364;BME280;40636;52.424;-1.948;2023-02-04T01:13:50;101859.69;;;8.30;100.00
43364;BME280;40636;52.424;-1.948;2023-02-04T01:16:17;101862.16;;;8.25;100.00
43364;BME280;40636;52.424;-1.948;2023-02-04T01:18:44;101861.66;;;8.21;100.00
43364;BME280;40636;52.424;-1.948;2023-02-04T01:21:11;101873.47;;;8.22;100.00
43364;BME280;40636;52.424;-1.948;2023-02-04T01:23:38;101862.53;;;8.22;100.00
43364;BME280;40636;52.424;-1.948;2023-02-04T01:26:04;101865.94;;;8.24;100.00
43364;BME280;40636;52.424;-1.948;2023-02-04T01:28:31;101864.41;;;8.21;100.00
43364;BME280;40636;52.424;-1.948;2023-02-04T01:30:58;101862.91;;;8.19;100.00
43364;BME280;40636;52.424;-1.948;2023-02-04T01:33:25;101863.75;;;8.19;100.00
43364;BME280;40636;52.424;-1.948;2023-02-04T01:35:51;101863.97;;;8.18;100.00
43364;BME280;40636;52.424;-1.948;2023-02-04T01:38:18;101870.84;;;8.13;100.00
43364;BME280;40636;52.424;-1.948;2023-02-04T01:40:45;101871.19;;;8.10;100.00
43364;BME280;40636;52.424;-1.948;2023-02-04T01:43:12;101881.78;;;8.13;100.00
43364;BME280;40636;52.424;-1.948;2023-02-04T01:45:39;101872.25;;;8.09;100.00
43364;BME280;40636;52.424;-1.948;2023-02-04T01:48:06;101879.88;;;8.14;100.00
43364;BME280;40636;52.424;-1.948;2023-02-04T01:50:33;101884.78;;;8.19;100.00
43364;BME280;40636;52.424;-1.948;2023-02-04T01:53:00;101888.09;;;8.14;100.00
43364;BME280;40636;52.424;-1.948;2023-02-04T01:55:30;101882.97;;;8.11;100.00
43364;BME280;40636;52.424;-1.948;2023-02-04T01:57:57;101893.06;;;8.10;100.00
43364;BME280;40636;52.424;-1.948;2023-02-04T02:00:30;101896.84;;;8.09;100.00
43364;BME280;40636;52.424;-1.948;2023-02-04T02:02:59;101900.78;;;8.07;100.00
43364;BME280;40636;52.424;-1.948;2023-02-04T02:05:35;101902.31;;;8.09;100.00
43364;BME280;40636;52.424;-1.948;2023-02-04T02:08:04;101904.78;;;8.04;100.00
43364;BME280;40636;52.424;-1.948;2023-02-04T02:10:32;101901.00;;;8.05;100.00
43364;BME280;40636;52.424;-1.948;2023-02-04T02:12:59;101904.38;;;8.07;100.00
43364;BME280;40636;52.424;-1.948;2023-02-04T02:15:26;101898.91;;;8.07;100.00
43364;BME280;40636;52.424;-1.948;2023-02-04T02:17:53;101901.84;;;8.06;100.00
43364;BME280;40636;52.424;-1.948;2023-02-04T02:20:23;101899.75;;;8.08;100.00
43364;BME280;40636;52.424;-1.948;2023-02-04T02:23:19;101898.91;;;8.07;100.00
43364;BME280;40636;52.424;-1.948;2023-02-04T02:25:48;101897.56;;;8.03;100.00
43364;BME280;40636;52.424;-1.948;2023-02-04T02:28:17;101893.50;;;7.99;100.00
43364;BME280;40636;52.424;-1.948;2023-02-04T02:30:46;101900.03;;;7.98;100.00
43364;BME280;40636;52.424;-1.948;2023-02-04T02:33:17;101894.75;;;7.97;100.00
43364;BME280;40636;52.424;-1.948;2023-02-04T02:35:45;101890.31;;;7.96;100.00
43364;BME280;40636;52.424;-1.948;2023-02-04T02:38:16;101882.00;;;7.89;100.00
43364;BME280;40636;52.424;-1.948;2023-02-04T02:40:43;101883.25;;;7.86;100.00
43364;BME280;40636;52.424;-1.948;2023-02-04T02:43:16;101883.13;;;7.80;100.00
43364;BME280;40636;52.424;-1.948;2023-02-04T02:45:45;101883.97;;;7.80;100.00
43364;BME280;40636;52.424;-1.948;2023-02-04T02:48:12;101883.31;;;7.78;100.00
43364;BME280;40636;52.424;-1.948;2023-02-04T02:50:38;101876.50;;;7.74;100.00
43364;BME280;40636;52.424;-1.948;2023-02-04T02:53:14;101884.72;;;7.74;100.00
43364;BME280;40636;52.424;-1.948;2023-02-04T02:55:42;101881.13;;;7.74;100.00
43364;BME280;40636;52.424;-1.948;2023-02-04T02:58:27;101879.72;;;7.78;100.00
43364;BME280;40636;52.424;-1.948;2023-02-04T03:00:55;101885.00;;;7.79;100.00
43364;BME280;40636;52.424;-1.948;2023-02-04T03:03:26;101872.56;;;7.77;100.00
43364;BME280;40636;52.424;-1.948;2023-02-04T03:05:57;101871.88;;;7.75;100.00
43364;BME280;40636;52.424;-1.948;2023-02-04T03:08:25;101874.81;;;7.73;100.00
43364;BME280;40636;52.424;-1.948;2023-02-04T03:10:52;101875.66;;;7.74;100.00
43364;BME280;40636;52.424;-1.948;2023-02-04T03:13:19;101874.97;;;7.72;100.00
43364;BME280;40636;52.424;-1.948;2023-02-04T03:15:48;101878.09;;;7.69;100.00
43364;BME280;40636;52.424;-1.948;2023-02-04T03:18:16;101875.53;;;7.67;100.00
43364;BME280;40636;52.424;-1.948;2023-02-04T03:20:47;101880.84;;;7.69;100.00
43364;BME280;40636;52.424;-1.948;2023-02-04T03:23:14;101883.94;;;7.66;100.00
43364;BME280;40636;52.424;-1.948;2023-02-04T03:25:42;101885.69;;;7.58;100.00
43364;BME280;40636;52.424;-1.948;2023-02-04T03:28:09;101890.19;;;7.51;100.00
43364;BME280;40636;52.424;-1.948;2023-02-04T03:30:36;101884.25;;;7.48;100.00
43364;BME280;40636;52.424;-1.948;2023-02-04T03:33:02;101877.63;;;7.42;100.00
43364;BME280;40636;52.424;-1.948;2023-02-04T03:35:29;101876.50;;;7.36;100.00
43364;BME280;40636;52.424;-1.948;2023-02-04T03:37:56;101873.63;;;7.30;100.00
43364;BME280;40636;52.424;-1.948;2023-02-04T03:40:22;101869.75;;;7.24;100.00
43364;BME280;40636;52.424;-1.948;2023-02-04T03:42:49;101872.16;;;7.19;100.00
43364;BME280;40636;52.424;-1.948;2023-02-04T03:45:16;101866.22;;;7.16;100.00
43364;BME280;40636;52.424;-1.948;2023-02-04T03:47:43;101878.47;;;7.20;100.00
43364;BME280;40636;52.424;-1.948;2023-02-04T03:50:09;101873.22;;;7.18;100.00
43364;BME280;40636;52.424;-1.948;2023-02-04T03:52:38;101873.50;;;7.23;100.00
43364;BME280;40636;52.424;-1.948;2023-02-04T03:55:05;101874.00;;;7.27;100.00
43364;BME280;40636;52.424;-1.948;2023-02-04T03:57:32;101874.31;;;7.32;100.00
43364;BME280;40636;52.424;-1.948;2023-02-04T03:59:59;101885.53;;;7.37;100.00
43364;BME280;40636;52.424;-1.948;2023-02-04T04:02:26;101879.69;;;7.40;100.00
43364;BME280;40636;52.424;-1.948;2023-02-04T04:04:52;101888.56;;;7.42;100.00
43364;BME280;40636;52.424;-1.948;2023-02-04T04:07:19;101883.75;;;7.44;100.00
43364;BME280;40636;52.424;-1.948;2023-02-04T04:09:46;101892.13;;;7.43;100.00
43364;BME280;40636;52.424;-1.948;2023-02-04T04:12:12;101885.47;;;7.45;100.00
43364;BME280;40636;52.424;-1.948;2023-02-04T04:14:39;101885.09;;;7.48;100.00
43364;BME280;40636;52.424;-1.948;2023-02-04T04:17:06;101881.16;;;7.51;100.00
43364;BME280;40636;52.424;-1.948;2023-02-04T04:19:33;101881.16;;;7.51;100.00
43364;BME280;40636;52.424;-1.948;2023-02-04T04:22:01;101874.66;;;7.52;100.00
43364;BME280;40636;52.424;-1.948;2023-02-04T04:24:27;101877.56;;;7.50;100.00
43364;BME280;40636;52.424;-1.948;2023-02-04T04:26:54;101882.75;;;7.45;100.00
43364;BME280;40636;52.424;-1.948;2023-02-04T04:29:21;101881.00;;;7.44;100.00
43364;BME280;40636;52.424;-1.948;2023-02-04T04:31:47;101887.72;;;7.42;100.00
43364;BME280;40636;52.424;-1.948;2023-02-04T04:34:14;101883.94;;;7.43;100.00
43364;BME280;40636;52.424;-1.948;2023-02-04T04:36:41;101889.94;;;7.38;100.00
43364;BME280;40636;52.424;-1.948;2023-02-04T04:39:08;101889.75;;;7.40;100.00
43364;BME280;40636;52.424;-1.948;2023-02-04T04:41:34;101890.78;;;7.38;100.00
43364;BME280;40636;52.424;-1.948;2023-02-04T04:44:01;101886.38;;;7.37;100.00
43364;BME280;40636;52.424;-1.948;2023-02-04T04:46:28;101889.75;;;7.40;100.00
43364;BME280;40636;52.424;-1.948;2023-02-04T04:48:55;101898.78;;;7.40;100.00
43364;BME280;40636;52.424;-1.948;2023-02-04T04:51:22;101906.34;;;7.38;100.00
43364;BME280;40636;52.424;-1.948;2023-02-04T04:53:49;101906.34;;;7.38;100.00
43364;BME280;40636;52.424;-1.948;2023-02-04T04:56:15;101911.16;;;7.36;100.00
43364;BME280;40636;52.424;-1.948;2023-02-04T04:58:44;101910.28;;;7.35;100.00
43364;BME280;40636;52.424;-1.948;2023-02-04T05:01:11;101906.03;;;7.33;100.00
43364;BME280;40636;52.424;-1.948;2023-02-04T05:03:37;101911.84;;;7.30;100.00
43364;BME280;40636;52.424;-1.948;2023-02-04T05:06:04;101915.25;;;7.32;100.00
43364;BME280;40636;52.424;-1.948;2023-02-04T05:08:31;101907.22;;;7.30;100.00
43364;BME280;40636;52.424;-1.948;2023-02-04T05:10:59;101909.41;;;7.35;100.00
43364;BME280;40636;52.424;-1.948;2023-02-04T05:13:26;101918.31;;;7.37;100.00
43364;BME280;40636;52.424;-1.948;2023-02-04T05:15:53;101920.84;;;7.38;100.00
43364;BME280;40636;52.424;-1.948;2023-02-04T05:18:19;101915.25;;;7.32;100.00
43364;BME280;40636;52.424;-1.948;2023-02-04T05:20:46;101920.72;;;7.32;100.00
43364;BME280;40636;52.424;-1.948;2023-02-04T05:23:13;101915.72;;;7.35;100.00
43364;BME280;40636;52.424;-1.948;2023-02-04T05:25:39;101925.16;;;7.33;100.00
43364;BME280;40636;52.424;-1.948;2023-02-04T05:28:06;101922.78;;;7.30;100.00
43364;BME280;40636;52.424;-1.948;2023-02-04T05:30:33;101919.38;;;7.28;100.00
43364;BME280;40636;52.424;-1.948;2023-02-04T05:33:00;101920.41;;;7.27;100.00
43364;BME280;40636;52.424;-1.948;2023-02-04T05:35:26;101919.53;;;7.26;100.00
43364;BME280;40636;52.424;-1.948;2023-02-04T05:37:53;101923.16;;;7.27;100.00
43364;BME280;40636;52.424;-1.948;2023-02-04T05:40:20;101917.69;;;7.27;100.00
43364;BME280;40636;52.424;-1.948;2023-02-04T05:42:47;101918.69;;;7.26;100.00
43364;BME280;40636;52.424;-1.948;2023-02-04T05:45:15;101916.81;;;7.26;100.00
43364;BME280;40636;52.424;-1.948;2023-02-04T05:47:42;101927.28;;;7.23;100.00
43364;BME280;40636;52.424;-1.948;2023-02-04T05:50:09;101926.44;;;7.22;100.00
43364;BME280;40636;52.424;-1.948;2023-02-04T05:52:36;101924.69;;;7.21;100.00
43364;BME280;40636;52.424;-1.948;2023-02-04T05:55:03;101918.03;;;7.24;100.00
43364;BME280;40636;52.424;-1.948;2023-02-04T05:57:30;101935.78;;;7.28;100.00
43364;BME280;40636;52.424;-1.948;2023-02-04T05:59:56;101934.94;;;7.27;100.00
43364;BME280;40636;52.424;-1.948;2023-02-04T06:02:23;101933.03;;;7.28;100.00
43364;BME280;40636;52.424;-1.948;2023-02-04T06:04:50;101932.00;;;7.29;100.00
43364;BME280;40636;52.424;-1.948;2023-02-04T06:07:17;101942.94;;;7.29;100.00
43364;BME280;40636;52.424;-1.948;2023-02-04T06:09:43;101940.69;;;7.32;100.00
43364;BME280;40636;52.424;-1.948;2023-02-04T06:12:10;101940.19;;;7.29;100.00
43364;BME280;40636;52.424;-1.948;2023-02-04T06:14:37;101942.94;;;7.29;100.00
43364;BME280;40636;52.424;-1.948;2023-02-04T06:17:03;101940.53;;;7.26;100.00
43364;BME280;40636;52.424;-1.948;2023-02-04T06:19:31;101942.81;;;7.22;100.00
43364;BME280;40636;52.424;-1.948;2023-02-04T06:21:58;101945.69;;;7.21;100.00
43364;BME280;40636;52.424;-1.948;2023-02-04T06:24:25;101946.53;;;7.21;100.00
43364;BME280;40636;52.424;-1.948;2023-02-04T06:26:51;101947.41;;;7.22;100.00
43364;BME280;40636;52.424;-1.948;2023-02-04T06:29:18;101953.72;;;7.22;100.00
43364;BME280;40636;52.424;-1.948;2023-02-04T06:31:45;101949.97;;;7.23;100.00
43364;BME280;40636;52.424;-1.948;2023-02-04T06:34:12;101947.41;;;7.22;100.00
43364;BME280;40636;52.424;-1.948;2023-02-04T06:36:39;101951.34;;;7.19;100.00
43364;BME280;40636;52.424;-1.948;2023-02-04T06:39:06;101941.28;;;7.20;100.00
43364;BME280;40636;52.424;-1.948;2023-02-04T06:41:33;101947.41;;;7.22;100.00
43364;BME280;40636;52.424;-1.948;2023-02-04T06:43:59;101951.00;;;7.22;100.00
43364;BME280;40636;52.424;-1.948;2023-02-04T06:46:26;101950.31;;;7.20;100.00
43364;BME280;40636;52.424;-1.948;2023-02-04T06:48:52;101960.38;;;7.20;100.00
43364;BME280;40636;52.424;-1.948;2023-02-04T06:51:19;101959.88;;;7.16;100.00
43364;BME280;40636;52.424;-1.948;2023-02-04T06:53:46;101955.47;;;7.15;100.00
43364;BME280;40636;52.424;-1.948;2023-02-04T06:56:12;101951.88;;;7.15;100.00
43364;BME280;40636;52.424;-1.948;2023-02-04T06:58:39;101958.19;;;7.15;100.00
43364;BME280;40636;52.424;-1.948;2023-02-04T07:01:06;101955.81;;;7.12;100.00
43364;BME280;40636;52.424;-1.948;2023-02-04T07:03:33;101953.47;;;7.09;100.00
43364;BME280;40636;52.424;-1.948;2023-02-04T07:05:59;101955.16;;;7.10;100.00
43364;BME280;40636;52.424;-1.948;2023-02-04T07:08:26;101954.31;;;7.09;100.00
43364;BME280;40636;52.424;-1.948;2023-02-04T07:10:53;101958.41;;;7.05;100.00
43364;BME280;40636;52.424;-1.948;2023-02-04T07:13:19;101963.38;;;7.02;100.00
43364;BME280;40636;52.424;-1.948;2023-02-04T07:15:46;101957.91;;;7.02;100.00
43364;BME280;40636;52.424;-1.948;2023-02-04T07:18:18;101967.66;;;7.04;100.00
43364;BME280;40636;52.424;-1.948;2023-02-04T07:20:45;101972.22;;;7.04;100.00
43364;BME280;40636;52.424;-1.948;2023-02-04T07:23:12;101968.00;;;7.01;100.00
43364;BME280;40636;52.424;-1.948;2023-02-04T07:25:39;101974.94;;;7.04;100.00
43364;BME280;40636;52.424;-1.948;2023-02-04T07:28:06;101970.91;;;7.00;100.00
43364;BME280;40636;52.424;-1.948;2023-02-04T07:30:33;101974.63;;;6.99;100.00
43364;BME280;40636;52.424;-1.948;2023-02-04T07:33:00;101969.03;;;7.00;100.00
43364;BME280;40636;52.424;-1.948;2023-02-04T07:35:27;101977.03;;;7.02;100.00
43364;BME280;40636;52.424;-1.948;2023-02-04T07:37:54;101976.84;;;7.03;100.00
43364;BME280;40636;52.424;-1.948;2023-02-04T07:40:21;101979.22;;;7.06;100.00
43364;BME280;40636;52.424;-1.948;2023-02-04T07:42:48;101978.19;;;7.07;100.00
43364;BME280;40636;52.424;-1.948;2023-02-04T07:45:15;101974.78;;;7.05;100.00
43364;BME280;40636;52.424;-1.948;2023-02-04T07:47:42;101974.59;;;7.07;100.00
43364;BME280;40636;52.424;-1.948;2023-02-04T07:50:08;101981.94;;;7.06;100.00
43364;BME280;40636;52.424;-1.948;2023-02-04T07:52:35;101984.16;;;7.11;100.00
43364;BME280;40636;52.424;-1.948;2023-02-04T07:55:03;101979.38;;;7.13;100.00
43364;BME280;40636;52.424;-1.948;2023-02-04T07:57:29;101984.66;;;7.15;100.00
43364;BME280;40636;52.424;-1.948;2023-02-04T07:59:56;101983.81;;;7.14;100.00
43364;BME280;40636;52.424;-1.948;2023-02-04T08:02:24;101985.16;;;7.18;100.00
43364;BME280;40636;52.424;-1.948;2023-02-04T08:04:52;101990.78;;;7.17;100.00
43364;BME280;40636;52.424;-1.948;2023-02-04T08:07:18;101988.88;;;7.17;100.00
43364;BME280;40636;52.424;-1.948;2023-02-04T08:09:45;101993.88;;;7.14;100.00
43364;BME280;40636;52.424;-1.948;2023-02-04T08:12:12;101997.25;;;7.16;100.00
43364;BME280;40636;52.424;-1.948;2023-02-04T08:14:39;101998.97;;;7.17;100.00
43364;BME280;40636;52.424;-1.948;2023-02-04T08:17:07;101987.88;;;7.18;100.00
43364;BME280;40636;52.424;-1.948;2023-02-04T08:19:34;101997.97;;;7.18;100.00
43364;BME280;40636;52.424;-1.948;2023-02-04T08:22:01;101996.91;;;7.19;100.00
43364;BME280;40636;52.424;-1.948;2023-02-04T08:24:28;101996.72;;;7.20;100.00
43364;BME280;40636;52.424;-1.948;2023-02-04T08:26:55;102006.63;;;7.21;100.00
43364;BME280;40636;52.424;-1.948;2023-02-04T08:29:23;102004.06;;;7.20;100.00
43364;BME280;40636;52.424;-1.948;2023-02-04T08:31:51;102008.69;;;7.19;100.00
43364;BME280;40636;52.424;-1.948;2023-02-04T08:34:18;102008.50;;;7.21;100.00
43364;BME280;40636;52.424;-1.948;2023-02-04T08:36:44;102015.50;;;7.23;100.00
43364;BME280;40636;52.424;-1.948;2023-02-04T08:39:11;102030.66;;;7.26;100.00
43364;BME280;40636;52.424;-1.948;2023-02-04T08:41:38;102031.03;;;7.23;100.00
43364;BME280;40636;52.424;-1.948;2023-02-04T08:44:05;102030.66;;;7.26;100.00
43364;BME280;40636;52.424;-1.948;2023-02-04T08:46:32;102036.13;;;7.26;100.00
43364;BME280;40636;52.424;-1.948;2023-02-04T08:49:00;102034.75;;;7.30;100.00
43364;BME280;40636;52.424;-1.948;2023-02-04T08:51:27;102035.59;;;7.30;100.00
43364;BME280;40636;52.424;-1.948;2023-02-04T08:53:54;102036.50;;;7.23;100.00
43364;BME280;40636;52.424;-1.948;2023-02-04T08:56:22;102034.09;;;7.28;100.00
43364;BME280;40636;52.424;-1.948;2023-02-04T08:58:49;102032.84;;;7.30;100.00
43364;BME280;40636;52.424;-1.948;2023-02-04T09:01:18;102029.28;;;7.30;100.00
43364;BME280;40636;52.424;-1.948;2023-02-04T09:03:46;102033.16;;;7.35;100.00
43364;BME280;40636;52.424;-1.948;2023-02-04T09:06:13;102039.50;;;7.36;100.00
43364;BME280;40636;52.424;-1.948;2023-02-04T09:08:39;102045.81;;;7.36;100.00
43364;BME280;40636;52.424;-1.948;2023-02-04T09:11:06;102046.66;;;7.37;100.00
43364;BME280;40636;52.424;-1.948;2023-02-04T09:13:35;102038.09;;;7.40;100.00
43364;BME280;40636;52.424;-1.948;2023-02-04T09:16:02;102041.34;;;7.44;100.00
43364;BME280;40636;52.424;-1.948;2023-02-04T09:18:29;102046.63;;;7.45;100.00
43364;BME280;40636;52.424;-1.948;2023-02-04T09:20:58;102045.75;;;7.45;100.00
43364;BME280;40636;52.424;-1.948;2023-02-04T09:23:24;102038.97;;;7.41;100.00
43364;BME280;40636;52.424;-1.948;2023-02-04T09:25:51;102044.25;;;7.42;100.00
43364;BME280;40636;52.424;-1.948;2023-02-04T09:28:18;102037.03;;;7.49;100.00
43364;BME280;40636;52.424;-1.948;2023-02-04T09:30:46;102034.28;;;7.49;100.00
43364;BME280;40636;52.424;-1.948;2023-02-04T09:33:15;102036.34;;;7.55;100.00
43364;BME280;40636;52.424;-1.948;2023-02-04T09:35:44;102036.34;;;7.55;100.00
43364;BME280;40636;52.424;-1.948;2023-02-04T09:38:11;102035.09;;;7.58;100.00
43364;BME280;40636;52.424;-1.948;2023-02-04T09:40:51;102039.03;;;7.63;100.00
43364;BME280;40636;52.424;-1.948;2023-02-04T09:43:22;102030.31;;;7.60;100.00
43364;BME280;40636;52.424;-1.948;2023-02-04T09:45:52;102035.25;;;7.65;100.00
43364;BME280;40636;52.424;-1.948;2023-02-04T09:48:21;102028.09;;;7.63;100.00
43364;BME280;40636;52.424;-1.948;2023-02-04T09:50:49;102029.44;;;7.68;100.00
43364;BME280;40636;52.424;-1.948;2023-02-04T09:53:19;102034.53;;;7.71;100.00
43364;BME280;40636;52.424;-1.948;2023-02-04T09:55:50;102034.91;;;7.68;100.00
43364;BME280;40636;52.424;-1.948;2023-02-04T09:58:19;102030.75;;;7.72;100.00
43364;BME280;40636;52.424;-1.948;2023-02-04T10:00:51;102039.13;;;7.70;100.00
43364;BME280;40636;52.424;-1.948;2023-02-04T10:03:22;102034.34;;;7.72;100.00
43364;BME280;40636;52.424;-1.948;2023-02-04T10:05:49;102032.28;;;7.74;100.00
43364;BME280;40636;52.424;-1.948;2023-02-04T10:08:19;102035.50;;;7.78;100.00
43364;BME280;40636;52.424;-1.948;2023-02-04T10:10:47;102028.28;;;7.85;100.00
43364;BME280;40636;52.424;-1.948;2023-02-04T10:13:20;102043.28;;;7.89;100.00
43364;BME280;40636;52.424;-1.948;2023-02-04T10:15:50;102043.66;;;7.86;100.00
43364;BME280;40636;52.424;-1.948;2023-02-04T10:18:24;102038.66;;;7.89;100.00
43364;BME280;40636;52.424;-1.948;2023-02-04T10:20:56;102042.44;;;7.88;100.00
43364;BME280;40636;52.424;-1.948;2023-02-04T10:23:26;102049.59;;;7.89;100.00
43364;BME280;40636;52.424;-1.948;2023-02-04T10:25:53;102049.44;;;7.91;100.00
43364;BME280;40636;52.424;-1.948;2023-02-04T10:28:19;102049.25;;;7.93;100.00
43364;BME280;40636;52.424;-1.948;2023-02-04T10:30:46;102049.75;;;7.96;100.00
43364;BME280;40636;52.424;-1.948;2023-02-04T10:33:15;102050.22;;;8.00;100.00
43364;BME280;40636;52.424;-1.948;2023-02-04T10:35:50;102052.41;;;8.04;100.00
43364;BME280;40636;52.424;-1.948;2023-02-04T10:38:18;102054.59;;;8.09;100.00
43364;BME280;40636;52.424;-1.948;2023-02-04T10:40:45;102056.94;;;8.12;100.00
43364;BME280;40636;52.424;-1.948;2023-02-04T10:43:30;102043.97;;;8.14;100.00
43364;BME280;40636;52.424;-1.948;2023-02-04T10:46:01;102052.28;;;8.21;100.00
43364;BME280;40636;52.424;-1.948;2023-02-04T10:48:28;102049.72;;;8.19;100.00
43364;BME280;40636;52.424;-1.948;2023-02-04T10:50:57;102049.53;;;8.21;100.00
43364;BME280;40636;52.424;-1.948;2023-02-04T10:53:24;102040.97;;;8.24;100.00
43364;BME280;40636;52.424;-1.948;2023-02-04T10:56:15;102046.53;;;8.30;100.00
43364;BME280;40636;52.424;-1.948;2023-02-04T10:58:43;102043.66;;;8.32;100.00
43364;BME280;40636;52.424;-1.948;2023-02-04T11:01:11;102052.88;;;8.31;100.00
43364;BME280;40636;52.424;-1.948;2023-02-04T11:03:40;102055.75;;;8.37;100.00
43364;BME280;40636;52.424;-1.948;2023-02-04T11:06:11;102057.25;;;8.40;100.00
43364;BME280;40636;52.424;-1.948;2023-02-04T11:08:39;102062.59;;;8.33;100.00
43364;BME280;40636;52.424;-1.948;2023-02-04T11:11:08;102051.78;;;8.40;100.00
43364;BME280;40636;52.424;-1.948;2023-02-04T11:16:25;102043.50;;;8.48;100.00
43364;BME280;40636;52.424;-1.948;2023-02-04T11:18:57;102058.53;;;8.52;100.00
43364;BME280;40636;52.424;-1.948;2023-02-04T11:26:44;102052.63;;;8.63;100.00
43364;BME280;40636;52.424;-1.948;2023-02-04T11:31:42;102055.00;;;8.81;100.00
43364;BME280;40636;52.424;-1.948;2023-02-04T11:39:48;102054.44;;;8.86;100.00
43364;BME280;40636;52.424;-1.948;2023-02-04T11:42:22;102051.22;;;8.82;100.00
43364;BME280;40636;52.424;-1.948;2023-02-04T11:44:59;102055.09;;;8.88;100.00
43364;BME280;40636;52.424;-1.948;2023-02-04T11:47:33;102051.59;;;8.79;100.00
43364;BME280;40636;52.424;-1.948;2023-02-04T11:50:04;102050.81;;;8.85;100.00
43364;BME280;40636;52.424;-1.948;2023-02-04T11:52:38;102051.78;;;8.93;100.00
43364;BME280;40636;52.424;-1.948;2023-02-04T11:55:05;102049.63;;;9.03;100.00
43364;BME280;40636;52.424;-1.948;2023-02-04T11:57:40;102050.47;;;9.03;100.00
43364;BME280;40636;52.424;-1.948;2023-02-04T12:00:17;102056.97;;;9.02;100.00
43364;BME280;40636;52.424;-1.948;2023-02-04T12:02:49;102043.97;;;9.04;100.00
43364;BME280;40636;52.424;-1.948;2023-02-04T12:05:20;102052.25;;;9.11;100.00
43364;BME280;40636;52.424;-1.948;2023-02-04T12:07:47;102057.94;;;9.09;100.00
43364;BME280;40636;52.424;-1.948;2023-02-04T12:12:49;102044.31;;;9.16;100.00
43364;BME280;40636;52.424;-1.948;2023-02-04T12:15:29;102050.66;;;9.02;100.00
43364;BME280;40636;52.424;-1.948;2023-02-04T12:18:06;102047.16;;;8.93;100.00
43364;BME280;40636;52.424;-1.948;2023-02-04T12:20:37;102049.06;;;8.93;100.00
43364;BME280;40636;52.424;-1.948;2023-02-04T12:23:04;102045.84;;;8.89;100.00
43364;BME280;40636;52.424;-1.948;2023-02-04T12:25:31;102047.38;;;8.92;100.00
43364;BME280;40636;52.424;-1.948;2023-02-04T12:27:59;102052.84;;;8.92;100.00
43364;BME280;40636;52.424;-1.948;2023-02-04T12:30:26;102061.91;;;8.92;100.00
43364;BME280;40636;52.424;-1.948;2023-02-04T12:32:52;102061.41;;;8.88;100.00
43364;BME280;40636;52.424;-1.948;2023-02-04T12:35:19;102061.63;;;8.87;100.00
43364;BME280;40636;52.424;-1.948;2023-02-04T12:37:46;102051.03;;;8.84;100.00
43364;BME280;40636;52.424;-1.948;2023-02-04T12:40:14;102054.44;;;8.86;100.00
43364;BME280;40636;52.424;-1.948;2023-02-04T12:42:42;102055.19;;;8.80;100.00
43364;BME280;40636;52.424;-1.948;2023-02-04T12:45:11;102055.19;;;8.80;100.00
43364;BME280;40636;52.424;-1.948;2023-02-04T12:47:38;102057.34;;;8.84;100.00
43364;BME280;40636;52.424;-1.948;2023-02-04T12:50:06;102046.41;;;8.84;100.00
43364;BME280;40636;52.424;-1.948;2023-02-04T12:52:33;102042.53;;;8.94;100.00
43364;BME280;40636;52.424;-1.948;2023-02-04T12:55:00;102037.91;;;8.94;100.00
43364;BME280;40636;52.424;-1.948;2023-02-04T12:57:26;102049.97;;;8.85;100.00
43364;BME280;40636;52.424;-1.948;2023-02-04T12:59:53;102038.94;;;8.78;100.00
43364;BME280;40636;52.424;-1.948;2023-02-04T13:02:23;102034.69;;;8.76;100.00